createdAt,value
2023-03-28T13:51:16.436Z,40.3378
2023-03-28T13:52:17.191Z,38.4924
2023-03-28T13:53:17.955Z,39.5456
2023-03-28T13:54:18.744Z,39.9798
2023-03-28T13:55:19.508Z,36.8319
2023-03-28T13:56:20.260Z,34.2947
2023-03-28T13:57:21.132Z,37.3011
2023-03-28T13:58:21.909Z,40.2442
2023-03-28T13:59:22.686Z,37.6675
2023-03-28T14:00:23.486Z,35.0759
2023-03-28T14:01:24.377Z,35.5126
2023-03-28T14:02:25.366Z,37.0813
2023-03-28T14:03:26.365Z,37.7487
2023-03-28T14:04:27.087Z,37.9615
2023-03-28T14:05:27.859Z,37.0634
2023-03-28T14:06:28.612Z,38.2417
2023-03-28T14:07:29.428Z,35.4294
2023-03-28T14:08:30.258Z,32.8741
2023-03-28T14:09:31.056Z,31.3898
2023-03-28T14:10:31.815Z,32.5324
2023-03-28T14:11:32.570Z,36.4319
2023-03-28T14:12:33.375Z,35.7853
2023-03-28T14:13:34.136Z,35.6315
2023-03-28T14:14:34.892Z,33.8779
2023-03-28T14:15:35.641Z,34.4195
2023-03-28T14:16:36.545Z,36.4255
2023-03-28T14:17:37.337Z,35.5368
2023-03-28T14:18:38.149Z,36.9534
2023-03-28T14:19:39.073Z,32.9950
2023-03-28T14:20:40.962Z,31.9879
2023-03-28T14:21:41.706Z,34.8863
2023-03-28T14:27:47.336Z,28.8021
2023-03-28T14:28:48.141Z,28.6946
2023-03-28T14:29:48.896Z,28.1093
2023-03-28T14:30:49.674Z,29.7848
2023-03-28T14:31:50.500Z,31.6709
2023-03-28T14:32:57.705Z,31.4270
2023-03-28T14:33:51.822Z,33.0449
2023-03-28T14:34:52.609Z,32.5932
2023-03-28T14:35:53.383Z,32.4114
2023-03-28T14:36:54.135Z,33.2982
2023-03-28T14:37:55.888Z,30.4112
2023-03-28T14:38:56.652Z,29.4560
2023-03-28T14:39:57.434Z,29.1233
2023-03-28T14:40:58.503Z,32.0294
2023-03-28T14:41:59.336Z,34.1994
2023-03-28T14:43:00.273Z,35.1005
2023-03-28T14:44:01.047Z,33.9678
2023-03-28T14:45:01.845Z,33.7680
2023-03-28T14:46:02.689Z,32.6425
2023-03-28T14:47:03.489Z,33.0969
2023-03-28T14:48:04.486Z,31.7536
2023-03-28T14:49:05.234Z,31.8847
2023-03-28T14:50:06.020Z,30.7758
2023-03-28T14:51:06.779Z,30.0160
2023-03-28T14:53:09.210Z,32.7678
2023-03-28T14:54:10.125Z,35.0291
2023-03-28T14:55:10.895Z,32.2828
2023-03-28T14:56:11.680Z,33.2449
2023-03-28T14:57:12.491Z,31.6936
2023-03-28T14:58:13.275Z,29.9252
2023-03-28T14:59:14.030Z,31.2443
2023-03-28T15:00:14.801Z,30.8689
2023-03-28T15:01:15.607Z,30.4103
2023-03-28T15:02:16.432Z,30.1471
2023-03-28T15:03:17.356Z,32.0636
2023-03-28T15:04:18.127Z,32.4034
2023-03-28T15:05:18.897Z,30.8236
2023-03-28T15:06:19.656Z,29.4010
2023-03-28T15:07:20.418Z,30.1378
2023-03-28T15:08:21.182Z,36.7544
2023-03-28T15:10:22.659Z,37.4616
2023-03-28T15:11:23.440Z,35.8007
2023-03-28T15:12:24.335Z,33.8218
2023-03-28T15:13:25.114Z,33.3203
2023-03-28T15:14:25.895Z,32.3555
2023-03-28T15:15:26.825Z,33.7709
2023-03-28T15:16:27.667Z,34.1106
2023-03-28T15:17:29.473Z,34.8529
2023-03-28T15:18:30.199Z,34.8346
2023-03-28T15:19:31.004Z,35.5618
2023-03-28T15:20:31.809Z,33.6110
2023-03-28T15:21:32.580Z,35.7287
2023-03-28T15:22:33.349Z,36.8248
2023-03-28T15:23:34.083Z,33.9727
2023-03-28T15:24:34.853Z,34.3394
2023-03-28T15:25:35.687Z,34.5603
2023-03-28T15:26:36.482Z,33.5167
2023-03-28T15:27:37.261Z,33.6231
2023-03-28T15:28:38.035Z,34.8101
2023-03-28T15:29:38.874Z,37.2675
2023-03-28T15:30:39.652Z,38.4686
2023-03-28T15:31:40.631Z,38.2768
2023-03-28T15:32:41.495Z,36.5667
2023-03-28T15:33:42.260Z,35.3193
2023-03-28T15:34:43.020Z,39.2069
2023-03-28T15:35:43.887Z,39.5356
2023-03-28T15:37:45.240Z,42.1286
2023-03-28T15:39:46.661Z,42.1572
2023-03-28T15:40:47.412Z,39.7553
2023-03-28T15:41:48.409Z,38.4369
2023-03-28T15:42:49.170Z,38.8257
2023-03-28T15:43:49.974Z,36.1773
2023-03-28T15:44:50.982Z,32.4281
2023-03-28T15:45:51.780Z,34.3680
2023-03-28T15:46:52.610Z,37.7673
2023-03-28T15:47:53.489Z,34.5227
2023-03-28T15:48:54.354Z,33.1577
2023-03-28T15:49:55.150Z,35.0052
2023-03-28T15:50:55.933Z,36.5351
2023-03-28T15:51:56.812Z,37.7098
2023-03-28T15:52:57.642Z,37.3999
2023-03-28T15:53:58.385Z,37.8322
2023-03-28T15:54:59.127Z,37.1455
2023-03-28T15:56:00.720Z,35.3619
2023-03-28T15:57:01.758Z,35.5666
2023-03-28T15:58:02.675Z,35.5115
2023-03-28T16:00:04.223Z,36.7702
2023-03-28T16:01:04.985Z,39.3238
2023-03-28T16:02:05.858Z,38.1602
2023-03-28T16:04:07.579Z,41.7507
2023-03-28T16:05:08.449Z,38.2430
2023-03-28T16:06:17.608Z,39.8718
2023-03-28T16:07:09.930Z,38.9055
2023-03-28T16:08:10.689Z,39.3060
2023-03-28T16:09:11.458Z,38.6387
2023-03-28T16:10:12.302Z,40.1893
2023-03-28T16:11:13.042Z,41.1382
2023-03-28T16:12:13.770Z,41.7129
2023-03-28T16:13:14.647Z,44.5537
2023-03-28T16:14:15.417Z,43.2975
2023-03-28T16:15:16.286Z,44.4541
2023-03-28T16:16:19.307Z,43.2501
2023-03-28T16:17:17.796Z,40.5082
2023-03-28T16:18:18.578Z,40.6532
2023-03-28T16:19:19.444Z,39.1520
2023-03-28T16:20:20.241Z,41.3624
2023-03-28T16:21:21.058Z,42.6667
2023-03-28T16:22:21.850Z,42.7776
2023-03-28T16:23:22.677Z,43.9273
2023-03-28T16:24:23.488Z,42.0683
2023-03-28T16:25:24.309Z,41.1786
2023-03-28T16:26:25.098Z,38.9735
2023-03-28T16:27:25.986Z,38.9254
2023-03-28T16:28:26.749Z,39.6132
2023-03-28T16:29:27.530Z,42.7443
2023-03-28T16:30:28.369Z,39.7974
2023-03-28T16:31:29.421Z,37.7642
2023-03-28T16:33:30.916Z,36.5327
2023-03-28T16:34:31.725Z,39.1954
2023-03-28T16:35:32.543Z,38.8462
2023-03-28T16:36:33.327Z,39.3544
2023-03-28T16:37:34.134Z,38.9258
2023-03-28T16:38:34.968Z,40.8448
2023-03-28T16:39:35.735Z,43.2674
2023-03-28T16:40:36.559Z,43.7621
2023-03-28T16:41:37.421Z,41.4122
2023-03-28T16:42:38.223Z,40.2939
2023-03-28T16:44:39.872Z,36.4847
2023-03-28T16:45:40.783Z,36.5891
2023-03-28T16:46:41.609Z,37.4884
2023-03-28T16:47:42.587Z,38.0644
2023-03-28T16:48:43.297Z,37.7565
2023-03-28T16:49:44.053Z,39.6554
2023-03-28T16:50:44.833Z,39.5066
2023-03-28T16:52:46.343Z,40.8197
2023-03-28T16:53:47.105Z,42.1778
2023-03-28T16:54:47.885Z,41.4521
2023-03-28T16:55:48.687Z,42.5724
2023-03-28T16:56:49.475Z,42.5388
2023-03-28T16:57:50.280Z,45.1613
2023-03-28T16:58:51.072Z,44.3813
2023-03-28T16:59:51.834Z,45.2705
2023-03-28T17:01:53.459Z,45.6872
2023-03-28T17:02:54.482Z,48.2363
2023-03-28T17:03:55.238Z,51.0768
2023-03-28T17:04:56.108Z,50.9766
2023-03-28T17:05:56.903Z,49.4754
2023-03-28T17:06:57.748Z,48.8314
2023-03-28T17:07:58.583Z,45.8968
2023-03-28T17:08:59.387Z,45.1032
2023-03-28T17:11:00.815Z,44.5775
2023-03-28T17:12:01.675Z,43.9809
2023-03-28T17:13:02.690Z,46.5718
2023-03-28T17:14:03.423Z,45.9885
2023-03-28T17:15:04.202Z,46.9747
2023-03-28T17:16:05.012Z,44.5149
2023-03-28T17:17:05.896Z,43.8164
2023-03-28T17:18:06.861Z,44.6416
2023-03-28T17:19:07.738Z,45.3138
2023-03-28T17:20:08.517Z,47.4617
2023-03-28T17:21:09.338Z,48.6011
2023-03-28T17:22:10.079Z,49.9258
2023-03-28T17:23:10.885Z,54.8971
2023-03-28T17:24:11.900Z,48.5323
2023-03-28T17:25:12.696Z,46.2653
2023-03-28T17:26:13.500Z,45.3125
2023-03-28T17:27:14.327Z,45.3169
2023-03-28T17:28:15.145Z,46.8506
2023-03-28T17:29:16.080Z,48.1744
2023-03-28T17:30:16.927Z,49.9848
2023-03-28T17:31:18.181Z,50.2558
2023-03-28T17:32:19.280Z,50.7820
2023-03-28T17:33:20.222Z,50.0049
2023-03-28T17:34:21.032Z,50.6397
2023-03-28T17:35:21.954Z,47.7782
2023-03-28T17:36:22.932Z,47.9375
2023-03-28T17:37:23.723Z,46.2872
2023-03-28T17:38:24.579Z,45.8640
2023-03-28T17:39:25.386Z,46.9230
2023-03-28T17:40:26.179Z,47.5851
2023-03-28T17:41:27.107Z,49.0526
2023-03-28T17:42:27.842Z,49.5081
2023-03-28T17:43:28.598Z,49.6788
2023-03-28T17:44:29.348Z,49.0028
2023-03-28T17:45:30.593Z,51.2367
2023-03-28T17:46:31.504Z,49.6765
2023-03-28T17:47:32.449Z,50.2378
2023-03-28T17:48:33.475Z,49.0131
2023-03-28T17:50:34.954Z,52.4871
2023-03-28T17:52:36.413Z,53.2500
2023-03-28T17:54:37.957Z,55.5544
2023-03-28T17:55:38.803Z,52.8158
2023-03-28T17:56:39.992Z,50.3267
2023-03-28T17:57:41.227Z,49.3103
2023-03-28T17:58:42.015Z,49.3063
2023-03-28T17:59:42.803Z,50.1536
2023-03-28T18:00:43.644Z,50.9939
2023-03-28T18:01:44.534Z,49.3385
2023-03-28T18:02:45.560Z,49.4671
2023-03-28T18:03:46.677Z,51.5236
2023-03-28T18:04:47.582Z,53.7693
2023-03-28T18:05:48.370Z,51.0597
2023-03-28T18:06:49.214Z,51.8434
2023-03-28T18:07:50.051Z,50.0224
2023-03-28T18:08:50.828Z,49.8554
2023-03-28T18:09:51.575Z,52.3988
2023-03-28T18:10:52.418Z,52.2293
2023-03-28T18:11:53.286Z,50.7586
2023-03-28T18:12:54.300Z,51.0975
2023-03-28T18:13:55.299Z,52.8114
2023-03-28T18:14:58.357Z,51.9242
2023-03-28T18:15:57.079Z,50.9790
2023-03-28T18:16:58.051Z,51.3467
2023-03-28T18:17:59.050Z,50.4705
2023-03-28T18:18:59.835Z,52.1747
2023-03-28T18:20:00.805Z,52.2734
2023-03-28T18:21:01.627Z,50.5699
2023-03-28T18:22:02.500Z,50.6706
2023-03-28T18:23:03.404Z,51.1286
2023-03-28T18:24:04.356Z,52.5912
2023-03-28T18:25:05.155Z,51.4859
2023-03-28T18:26:05.924Z,50.7453
2023-03-28T18:27:06.743Z,53.4265
2023-03-28T18:28:07.603Z,55.4027
2023-03-28T18:29:08.375Z,52.1237
2023-03-28T18:30:09.185Z,51.6266
2023-03-28T18:31:10.027Z,52.5364
2023-03-28T18:32:10.860Z,51.9809
2023-03-28T18:33:11.643Z,53.0340
2023-03-28T18:34:12.459Z,56.7746
2023-03-28T18:35:13.261Z,56.3093
2023-03-28T18:36:14.237Z,57.6129
2023-03-28T18:37:15.295Z,53.8809
2023-03-28T18:38:16.130Z,52.9242
2023-03-28T18:39:16.898Z,52.6320
2023-03-28T18:40:17.697Z,54.1310
2023-03-28T18:41:18.609Z,54.0923
2023-03-28T18:42:19.656Z,54.3961
2023-03-28T18:43:20.594Z,54.7773
2023-03-28T18:44:21.604Z,54.9237
2023-03-28T18:45:22.482Z,56.2249
2023-03-28T18:46:23.333Z,55.3223
2023-03-28T18:47:24.170Z,55.1314
2023-03-28T18:48:25.127Z,55.8367
2023-03-28T18:49:26.114Z,55.2583
2023-03-28T18:50:26.925Z,53.6290
2023-03-28T18:51:27.804Z,52.1484
2023-03-28T18:52:30.204Z,53.6209
2023-03-28T18:54:29.737Z,54.8388
2023-03-28T18:55:30.552Z,53.8285
2023-03-28T18:56:31.364Z,54.2215
2023-03-28T18:57:32.588Z,55.1531
2023-03-28T18:58:33.435Z,53.2583
2023-03-28T18:59:34.226Z,53.8340
2023-03-28T19:00:35.064Z,54.7463
2023-03-28T19:01:36.143Z,53.8233
2023-03-28T19:02:37.261Z,51.8784
2023-03-28T19:03:38.784Z,52.4571
2023-03-28T19:04:39.755Z,54.3417
2023-03-28T19:05:40.706Z,55.7234
2023-03-28T19:06:41.547Z,55.5128
2023-03-28T19:07:42.394Z,53.3593
2023-03-28T19:08:43.238Z,53.7403
2023-03-28T19:09:44.007Z,53.4373
2023-03-28T19:10:44.817Z,55.0332
2023-03-28T19:11:45.653Z,55.0094
2023-03-28T19:12:46.425Z,52.6042
2023-03-28T19:14:48.049Z,52.1130
2023-03-28T19:15:48.864Z,53.0960
2023-03-28T19:16:49.890Z,52.7505
2023-03-28T19:17:50.752Z,53.1354
2023-03-28T19:18:51.523Z,53.5150
2023-03-28T19:19:52.354Z,53.7414
2023-03-28T19:20:53.181Z,53.8690
2023-03-28T19:21:54.102Z,52.6949
2023-03-28T19:22:54.929Z,53.4334
2023-03-28T19:23:55.708Z,52.9566
2023-03-28T19:24:56.904Z,53.1288
2023-03-28T19:25:58.041Z,54.6965
2023-03-28T19:27:02.073Z,53.9668
2023-03-28T19:37:08.723Z,54.7232
2023-03-28T19:38:09.487Z,55.3471
2023-03-28T19:39:10.318Z,53.7781
2023-03-28T19:40:11.121Z,56.0249
2023-03-28T19:45:15.763Z,57.4520
2023-03-28T19:46:16.796Z,55.8078
2023-03-28T19:47:17.523Z,55.7345
2023-03-28T19:48:18.302Z,57.0711
2023-03-28T19:49:19.103Z,56.5039
2023-03-28T19:50:19.915Z,57.0164
2023-03-28T19:51:20.729Z,57.9344
2023-03-28T19:52:21.493Z,58.0268
2023-03-28T19:53:22.289Z,55.9427
2023-03-28T19:54:23.107Z,55.3329
2023-03-28T19:55:23.864Z,55.7449
2023-03-28T19:56:24.647Z,57.6135
2023-03-28T19:57:25.460Z,58.6379
2023-03-28T19:58:26.347Z,57.1762
2023-03-28T19:59:27.142Z,57.0658
2023-03-28T20:00:27.976Z,56.8069
2023-03-28T20:01:28.842Z,56.5472
2023-03-28T20:02:29.684Z,57.1624
2023-03-28T20:03:30.463Z,58.7582
2023-03-28T20:04:31.361Z,59.1815
2023-03-28T20:05:32.168Z,59.6163
2023-03-28T20:06:32.945Z,58.4496
2023-03-28T20:07:33.946Z,58.3835
2023-03-28T20:08:34.857Z,57.7536
2023-03-28T20:09:36.049Z,57.1189
2023-03-28T20:10:36.994Z,60.7995
2023-03-28T20:11:37.791Z,62.5184
2023-03-28T20:12:38.594Z,60.2804
2023-03-28T20:14:40.151Z,57.0287
2023-03-28T20:15:40.968Z,58.9321
2023-03-28T20:16:41.685Z,60.1731
2023-03-28T20:17:42.585Z,58.9056
2023-03-28T20:18:43.441Z,60.2205
2023-03-28T20:19:44.160Z,61.0372
2023-03-28T20:20:44.980Z,61.8298
2023-03-28T20:21:46.774Z,60.9573
2023-03-28T20:22:47.550Z,61.4027
2023-03-28T20:24:49.073Z,61.4606
2023-03-28T20:25:49.875Z,60.9441
2023-03-28T20:26:50.693Z,60.9124
2023-03-28T20:27:51.575Z,61.2223
2023-03-28T20:28:52.385Z,58.4345
2023-03-28T20:29:53.183Z,57.8180
2023-03-28T20:30:54.250Z,61.2195
2023-03-28T20:31:55.248Z,60.2369
2023-03-28T20:32:56.086Z,59.9731
2023-03-28T20:33:56.915Z,63.5099
2023-03-28T20:34:57.747Z,61.8971
2023-03-28T20:35:58.646Z,63.3132
2023-03-28T20:36:59.426Z,63.2791
2023-03-28T20:39:00.887Z,62.8957
2023-03-28T20:40:01.676Z,63.2296
2023-03-28T20:41:02.977Z,60.0612
2023-03-28T20:42:04.050Z,59.4432
2023-03-28T20:43:04.939Z,58.0030
2023-03-28T20:44:05.745Z,56.2215
2023-03-28T20:45:06.598Z,57.2842
2023-03-28T20:46:07.355Z,59.7159
2023-03-28T20:47:08.230Z,60.1739
2023-03-28T20:48:09.209Z,66.8308
2023-03-28T20:49:09.992Z,63.3127
2023-03-28T20:50:10.753Z,60.0916
2023-03-28T20:51:11.575Z,61.4963
2023-03-28T20:52:12.360Z,59.9973
2023-03-28T20:53:13.196Z,61.1006
2023-03-28T20:54:13.997Z,63.0283
2023-03-28T20:55:14.747Z,63.1804
2023-03-28T20:56:15.586Z,64.6564
2023-03-28T20:57:16.513Z,65.0888
2023-03-28T20:58:17.242Z,65.3832
2023-03-28T20:59:18.003Z,66.8905
2023-03-28T21:00:18.780Z,67.7937
2023-03-28T21:01:19.633Z,65.5704
2023-03-28T21:02:20.472Z,65.1994
2023-03-28T21:03:21.264Z,63.1391
2023-03-28T21:04:22.098Z,62.3353
2023-03-28T21:05:22.899Z,60.6077
2023-03-28T21:06:23.724Z,62.2308
2023-03-28T21:07:24.463Z,63.1332
2023-03-28T21:08:25.303Z,63.5269
2023-03-28T21:09:26.093Z,64.3947
2023-03-28T21:10:26.918Z,63.0958
2023-03-28T21:11:27.733Z,64.0510
2023-03-28T21:12:28.536Z,63.8252
2023-03-28T21:13:29.252Z,63.0879
2023-03-28T21:14:30.062Z,63.7089
2023-03-28T21:15:30.875Z,64.0867
2023-03-28T21:16:31.785Z,64.1593
2023-03-28T21:17:32.750Z,63.9874
2023-03-28T21:19:34.223Z,66.2605
2023-03-28T21:20:35.107Z,63.2194
2023-03-28T21:21:35.860Z,63.8705
2023-03-28T21:22:36.662Z,66.3503
2023-03-28T21:23:37.456Z,63.8636
2023-03-28T21:25:38.962Z,65.2596
2023-03-28T21:26:39.745Z,62.4754
2023-03-28T21:27:40.635Z,60.7385
2023-03-28T21:28:41.454Z,60.8651
2023-03-28T21:29:42.226Z,63.8412
2023-03-28T21:30:43.005Z,66.2129
2023-03-28T21:31:43.933Z,64.2864
2023-03-28T21:32:44.788Z,64.2240
2023-03-28T21:33:45.498Z,64.9703
2023-03-28T21:34:46.361Z,63.0204
2023-03-28T21:35:47.176Z,64.1347
2023-03-28T21:36:47.892Z,65.4062
2023-03-28T21:37:48.680Z,65.4637
2023-03-28T21:38:49.504Z,65.0354
2023-03-28T21:39:50.281Z,65.3942
2023-03-28T21:40:51.062Z,65.6196
2023-03-28T21:41:51.820Z,65.6048
2023-03-28T21:42:52.672Z,64.4423
2023-03-28T21:43:53.469Z,64.3952
2023-03-28T21:44:54.292Z,63.9375
2023-03-28T21:46:55.770Z,59.3133
2023-03-28T21:47:56.603Z,59.8637
2023-03-28T21:48:57.368Z,59.3943
2023-03-28T21:49:58.209Z,59.1859
2023-03-28T21:50:59.953Z,59.2342
2023-03-28T21:52:01.061Z,59.9748
2023-03-28T21:53:01.836Z,59.5439
2023-03-28T21:54:02.789Z,60.1212
2023-03-28T21:55:03.601Z,60.1638
2023-03-28T21:56:04.366Z,60.0090
2023-03-28T21:57:05.251Z,60.2050
2023-03-28T21:58:06.004Z,60.2597
2023-03-28T21:59:06.779Z,60.7220
2023-03-28T22:00:07.605Z,60.8248
2023-03-28T22:01:08.548Z,60.5718
2023-03-28T22:02:09.418Z,59.9262
2023-03-28T22:03:10.435Z,60.6468
2023-03-28T22:04:11.872Z,60.4901
2023-03-28T22:05:28.546Z,60.2632
2023-03-28T22:14:19.792Z,58.8734
2023-03-28T22:15:20.547Z,59.1500
2023-03-28T22:16:21.513Z,59.1283
2023-03-28T22:17:22.311Z,58.7401
2023-03-28T22:18:23.218Z,60.0115
2023-03-28T22:19:24.044Z,59.5703
2023-03-28T22:20:24.842Z,59.8405
2023-03-28T22:21:25.655Z,60.1458
2023-03-28T22:22:26.444Z,58.8755
2023-03-28T22:23:27.246Z,59.2882
2023-03-28T22:24:28.009Z,60.0745
2023-03-28T22:25:28.825Z,59.9306
2023-03-28T22:26:29.596Z,59.6024
2023-03-28T22:27:30.347Z,59.8349
2023-03-28T22:28:31.156Z,60.1974
2023-03-28T22:30:32.635Z,61.8164
2023-03-28T22:31:33.505Z,61.6225
2023-03-28T22:32:34.277Z,61.4557
2023-03-28T22:34:35.755Z,61.8193
2023-03-28T22:36:37.420Z,62.3480
2023-03-28T22:37:38.182Z,62.9478
2023-03-28T22:38:38.967Z,62.7591
2023-03-28T22:39:39.917Z,63.8737
2023-03-28T22:40:40.825Z,64.0072
2023-03-28T22:41:41.619Z,63.8360
2023-03-28T22:42:42.385Z,64.1514
2023-03-28T22:43:43.181Z,64.2878
2023-03-28T22:44:43.966Z,64.2109
2023-03-28T22:45:44.806Z,64.0401
2023-03-28T22:46:45.778Z,64.9197
2023-03-28T22:47:46.726Z,64.6129
2023-03-28T22:48:47.489Z,64.8812
2023-03-28T22:49:48.327Z,65.2538
2023-03-28T22:50:49.116Z,65.1095
2023-03-28T22:51:50.044Z,65.9949
2023-03-28T22:52:50.865Z,66.4068
2023-03-28T22:53:51.663Z,66.5335
2023-03-28T22:54:52.469Z,67.3332
2023-03-28T22:55:53.211Z,67.0671
2023-03-28T22:57:56.304Z,67.4463
2023-03-28T23:04:00.294Z,69.5227
2023-03-28T23:05:01.178Z,70.1946
2023-03-28T23:06:02.143Z,70.4798
2023-03-28T23:07:02.849Z,70.3449
2023-03-28T23:08:03.727Z,70.6696
2023-03-28T23:09:04.612Z,70.3337
2023-03-28T23:10:05.453Z,69.7570
2023-03-28T23:11:07.292Z,71.3044
2023-03-28T23:12:08.127Z,70.7520
2023-03-28T23:13:08.844Z,70.8158
2023-03-28T23:14:09.622Z,71.5609
2023-03-28T23:15:10.453Z,71.7107
2023-03-28T23:16:11.414Z,71.0974
2023-03-28T23:17:12.123Z,71.3677
2023-03-28T23:18:12.954Z,71.6731
2023-03-28T23:19:13.723Z,73.9013
2023-03-28T23:20:14.837Z,72.0228
2023-03-28T23:21:15.833Z,70.4109
2023-03-28T23:22:16.651Z,69.5408
2023-03-28T23:23:17.463Z,69.8719
2023-03-28T23:24:18.233Z,69.7518
2023-03-28T23:26:20.047Z,70.0542
2023-03-28T23:28:21.604Z,72.0506
2023-03-28T23:30:23.145Z,73.0288
2023-03-28T23:31:24.074Z,76.5929
2023-03-28T23:32:25.051Z,71.4438
2023-03-28T23:33:25.884Z,72.7130
2023-03-28T23:34:26.729Z,71.4702
2023-03-28T23:35:27.511Z,70.7925
2023-03-28T23:36:28.312Z,70.3771
2023-03-28T23:37:29.085Z,70.6737
2023-03-28T23:38:29.914Z,71.4419
2023-03-28T23:39:30.688Z,71.3193
2023-03-28T23:40:31.540Z,71.8329
2023-03-28T23:41:32.283Z,72.2529
2023-03-28T23:42:33.043Z,72.6980
2023-03-28T23:43:33.875Z,73.1806
2023-03-28T23:44:34.644Z,71.1733
2023-03-28T23:45:35.523Z,68.6211
2023-03-28T23:46:36.306Z,68.4866
2023-03-28T23:47:37.131Z,68.9361
2023-03-28T23:49:38.760Z,69.3595
2023-03-28T23:50:39.560Z,67.7467
2023-03-28T23:51:40.430Z,67.4756
2023-03-28T23:52:41.202Z,65.5048
2023-03-28T23:53:41.989Z,66.3137
2023-03-28T23:54:42.801Z,67.5883
2023-03-28T23:55:43.579Z,69.0296
2023-03-28T23:56:44.430Z,67.7398
2023-03-28T23:57:45.242Z,69.0563
2023-03-28T23:58:46.076Z,69.5022
2023-03-28T23:59:46.910Z,69.4184
